Time;durP1;ratioP1;P1;durP2;ratioP2;P2;SDS_P1;SDS_P2;PMS_P1;PMS_P2;Temp;Humidity;BMP_temperature;BMP_pressure;BME280_temperature;BME280_humidity;BME280_pressure;Samples;Min_cycle;Max_cycle;Signal;HPM_P1;HPM_P2
2022/03/02 00:00:57;;;;;;;10.35;7.28;;;5.20;96.70;;;;;;5008077;28;20042;-82
2022/03/02 00:03:26;;;;;;;9.15;7.05;;;5.10;96.70;;;;;;4990166;28;20058;-83
2022/03/02 00:05:54;;;;;;;12.00;6.97;;;5.00;96.70;;;;;;4997389;28;20129;-82
2022/03/02 00:08:22;;;;;;;12.77;7.45;;;5.20;96.70;;;;;;4996644;28;20045;-82
2022/03/02 00:10:52;;;;;;;10.05;7.10;;;5.10;96.70;;;;;;4988445;28;20618;-82
2022/03/02 00:13:21;;;;;;;10.40;6.93;;;5.00;96.70;;;;;;5009318;28;20208;-82
2022/03/02 00:15:49;;;;;;;10.55;7.10;;;4.90;96.70;;;;;;4990895;28;20042;-82
2022/03/02 00:18:18;;;;;;;9.27;6.53;;;5.00;96.70;;;;;;4989166;28;20515;-82
2022/03/02 00:20:46;;;;;;;9.85;6.43;;;5.00;96.70;;;;;;5010609;28;20038;-82
2022/03/02 00:23:15;;;;;;;9.48;5.78;;;5.00;96.70;;;;;;4995860;28;20501;-81
2022/03/02 00:25:43;;;;;;;8.88;6.43;;;5.10;96.70;;;;;;5003539;28;20516;-82
2022/03/02 00:28:16;;;;;;;8.50;6.22;;;5.10;96.70;;;;;;4989947;28;20042;-82
2022/03/02 00:30:45;;;;;;;8.48;5.55;;;5.00;96.70;;;;;;4971074;28;20746;-82
2022/03/02 00:33:13;;;;;;;9.05;5.82;;;5.00;96.70;;;;;;5008956;28;20046;-81
2022/03/02 00:35:42;;;;;;;8.13;5.70;;;4.80;96.70;;;;;;4990999;28;20108;-82
2022/03/02 00:38:11;;;;;;;7.90;5.45;;;4.80;96.70;;;;;;4987693;28;20088;-82
2022/03/02 00:40:40;;;;;;;7.22;5.57;;;4.90;96.70;;;;;;5004298;28;20403;-82
2022/03/02 00:43:09;;;;;;;8.85;5.82;;;4.80;96.70;;;;;;5006768;28;20053;-82
2022/03/02 00:45:40;;;;;;;9.40;6.28;;;4.80;96.70;;;;;;4983660;28;20077;-82
2022/03/02 00:48:08;;;;;;;9.52;6.25;;;5.00;96.70;;;;;;4987347;28;20062;-82
2022/03/02 00:50:37;;;;;;;9.77;5.75;;;5.00;96.70;;;;;;4997083;28;20037;-82
2022/03/02 00:53:06;;;;;;;9.00;6.53;;;4.90;96.70;;;;;;4995616;28;20092;-82
2022/03/02 00:55:35;;;;;;;9.77;6.20;;;4.90;96.70;;;;;;5008171;28;20040;-82
2022/03/02 00:58:05;;;;;;;12.43;6.13;;;4.90;96.70;;;;;;4992247;28;20037;-82
2022/03/02 01:00:33;;;;;;;8.88;6.13;;;4.90;96.70;;;;;;4994817;28;20096;-83
2022/03/02 01:03:03;;;;;;;7.10;5.60;;;4.80;96.70;;;;;;4972970;28;20076;-81
2022/03/02 01:05:32;;;;;;;10.50;6.95;;;4.70;96.70;;;;;;5007055;28;20053;-82
2022/03/02 01:08:00;;;;;;;10.35;6.60;;;4.60;96.70;;;;;;4988546;28;20070;-82
2022/03/02 01:10:28;;;;;;;9.50;6.70;;;4.60;96.70;;;;;;4991370;28;20042;-82
2022/03/02 01:12:56;;;;;;;10.88;6.70;;;4.60;96.70;;;;;;5007913;28;20380;-82
2022/03/02 01:15:24;;;;;;;10.52;6.97;;;4.40;96.70;;;;;;5006668;28;20069;-82
2022/03/02 01:17:52;;;;;;;10.18;6.93;;;4.50;96.70;;;;;;4973529;28;20170;-82
2022/03/02 01:20:21;;;;;;;9.77;6.97;;;4.40;96.70;;;;;;4991324;28;20049;-82
2022/03/02 01:22:50;;;;;;;10.63;6.72;;;4.50;96.70;;;;;;4995636;28;20163;-81
2022/03/02 01:25:18;;;;;;;11.30;7.63;;;4.60;96.70;;;;;;4974431;28;20050;-82
2022/03/02 01:27:46;;;;;;;12.68;7.20;;;4.60;96.70;;;;;;5007686;28;20038;-82
2022/03/02 01:30:14;;;;;;;10.13;7.18;;;4.40;96.70;;;;;;4988249;28;20031;-81
2022/03/02 01:32:42;;;;;;;9.10;7.10;;;4.30;96.70;;;;;;5005092;28;20038;-82
2022/03/02 01:35:11;;;;;;;12.07;7.88;;;4.30;96.70;;;;;;5008556;28;20041;-83
2022/03/02 01:37:41;;;;;;;10.95;7.78;;;4.40;96.70;;;;;;5008440;28;20042;-82
2022/03/02 01:40:09;;;;;;;10.63;6.70;;;4.60;96.70;;;;;;5004773;28;20035;-82
2022/03/02 01:42:38;;;;;;;10.32;6.88;;;4.50;96.70;;;;;;4989888;28;20046;-82
2022/03/02 01:45:08;;;;;;;11.10;7.70;;;4.40;96.70;;;;;;4990161;28;20061;-82
2022/03/02 01:47:36;;;;;;;9.15;6.70;;;4.30;96.70;;;;;;5004810;28;20078;-81
2022/03/02 01:50:11;;;;;;;10.30;7.00;;;4.20;96.70;;;;;;5002606;28;20053;-82
2022/03/02 01:52:41;;;;;;;9.27;6.95;;;4.30;96.70;;;;;;4987503;28;20456;-82
2022/03/02 01:55:10;;;;;;;11.18;7.18;;;4.30;96.70;;;;;;4993317;28;20046;-82
2022/03/02 01:57:41;;;;;;;9.88;6.80;;;4.20;96.70;;;;;;4984237;28;20049;-82
2022/03/02 02:00:17;;;;;;;8.52;6.43;;;4.10;96.70;;;;;;4983606;28;20041;-82
2022/03/02 02:02:47;;;;;;;10.57;6.47;;;4.20;96.70;;;;;;5012164;28;20081;-81
2022/03/02 02:05:15;;;;;;;8.50;5.88;;;4.20;96.70;;;;;;4994650;28;20088;-82
2022/03/02 02:07:45;;;;;;;9.63;5.47;;;4.20;96.70;;;;;;4991913;28;20046;-83
2022/03/02 02:10:14;;;;;;;7.45;5.45;;;4.20;96.70;;;;;;4996009;28;20053;-83
2022/03/02 02:12:42;;;;;;;8.68;5.05;;;4.20;96.70;;;;;;4990143;28;20054;-82
2022/03/02 02:15:10;;;;;;;7.72;4.95;;;4.10;96.70;;;;;;4994380;28;20121;-83
2022/03/02 02:17:40;;;;;;;6.13;4.85;;;4.10;96.70;;;;;;4990641;28;20241;-81
2022/03/02 02:20:10;;;;;;;8.18;5.05;;;4.10;96.70;;;;;;4990730;28;20069;-81
2022/03/02 02:22:41;;;;;;;8.02;5.35;;;3.90;96.70;;;;;;4987624;28;20042;-82
2022/03/02 02:25:10;;;;;;;6.70;4.90;;;3.90;96.70;;;;;;4993325;28;20605;-82
2022/03/02 02:27:40;;;;;;;7.65;5.03;;;3.90;96.70;;;;;;4986023;28;20042;-83
2022/03/02 02:30:09;;;;;;;9.18;5.85;;;3.80;96.70;;;;;;4987647;28;20050;-82
2022/03/02 02:32:38;;;;;;;7.50;5.70;;;3.90;96.70;;;;;;5003413;28;20113;-82
2022/03/02 02:35:10;;;;;;;8.10;6.20;;;3.90;96.70;;;;;;4990688;28;20050;-83
2022/03/02 02:37:40;;;;;;;8.93;5.75;;;3.80;96.70;;;;;;4973549;28;20538;-85
2022/03/02 02:40:11;;;;;;;7.78;5.65;;;3.90;96.70;;;;;;4990910;28;20041;-85
2022/03/02 02:42:44;;;;;;;11.68;6.63;;;3.90;96.70;;;;;;4993397;28;20081;-85
2022/03/02 02:45:15;;;;;;;9.63;6.80;;;4.00;96.70;;;;;;5010351;28;20563;-85
2022/03/02 02:47:44;;;;;;;9.27;6.40;;;3.80;96.70;;;;;;4992602;28;20096;-86
2022/03/02 02:50:17;;;;;;;10.07;7.05;;;3.80;96.70;;;;;;4991914;28;20046;-85
2022/03/02 02:52:48;;;;;;;10.07;6.82;;;3.80;96.70;;;;;;4988345;28;20061;-85
2022/03/02 02:55:16;;;;;;;12.25;7.55;;;3.80;96.70;;;;;;5002044;28;20047;-86
2022/03/02 02:57:45;;;;;;;10.88;7.97;;;3.80;96.70;;;;;;4979967;28;20050;-85
2022/03/02 03:00:16;;;;;;;10.40;7.13;;;3.60;96.70;;;;;;4987806;28;20046;-85
2022/03/02 03:02:47;;;;;;;10.00;6.78;;;3.70;96.70;;;;;;4992240;28;20042;-83
2022/03/02 03:05:17;;;;;;;11.57;6.60;;;3.60;96.70;;;;;;4970607;28;20096;-85
2022/03/02 03:07:48;;;;;;;9.38;6.57;;;3.70;96.70;;;;;;5007133;28;20105;-86
2022/03/02 03:10:17;;;;;;;9.13;6.15;;;3.60;96.70;;;;;;4996492;28;20757;-86
2022/03/02 03:12:46;;;;;;;9.23;5.80;;;3.50;96.70;;;;;;4987949;28;20137;-83
2022/03/02 03:15:16;;;;;;;8.80;6.32;;;3.50;96.70;;;;;;5011296;28;20478;-83
2022/03/02 03:17:45;;;;;;;9.48;6.28;;;3.50;96.70;;;;;;4994832;28;20129;-82
2022/03/02 03:20:17;;;;;;;10.13;6.22;;;3.60;96.70;;;;;;5009494;28;20522;-83
2022/03/02 03:22:47;;;;;;;11.50;6.57;;;3.50;96.70;;;;;;4990083;28;20348;-83
2022/03/02 03:25:16;;;;;;;8.13;5.72;;;3.50;96.70;;;;;;5006204;28;20057;-82
2022/03/02 03:27:44;;;;;;;10.95;6.00;;;3.50;96.70;;;;;;5007537;28;20118;-83
2022/03/02 03:30:14;;;;;;;8.02;5.85;;;3.50;96.70;;;;;;4991119;28;20042;-83
2022/03/02 03:32:42;;;;;;;9.68;5.97;;;3.60;96.70;;;;;;4986222;28;20149;-82
2022/03/02 03:35:12;;;;;;;9.77;5.82;;;3.60;96.70;;;;;;5008411;28;20789;-83
2022/03/02 03:37:41;;;;;;;6.93;5.47;;;3.50;96.70;;;;;;4992430;28;20077;-83
2022/03/02 03:40:14;;;;;;;8.60;5.90;;;3.50;96.70;;;;;;4994457;28;20061;-82
2022/03/02 03:42:42;;;;;;;9.35;5.47;;;3.50;96.70;;;;;;4982590;28;20046;-82
2022/03/02 03:45:11;;;;;;;9.20;5.88;;;3.40;96.70;;;;;;4999650;28;20471;-83
2022/03/02 03:47:40;;;;;;;7.72;5.15;;;3.50;96.70;;;;;;4998518;28;20046;-83
2022/03/02 03:50:09;;;;;;;8.95;4.93;;;3.30;96.70;;;;;;5012753;28;20133;-83
2022/03/02 03:52:38;;;;;;;8.73;5.32;;;3.20;96.70;;;;;;5006399;28;20042;-83
2022/03/02 03:55:08;;;;;;;8.27;5.25;;;3.20;96.70;;;;;;4995224;28;20116;-83
2022/03/02 03:57:41;;;;;;;9.82;5.30;;;3.40;96.70;;;;;;4997369;28;20107;-83
2022/03/02 04:00:12;;;;;;;8.20;5.00;;;3.40;96.70;;;;;;5005993;28;20050;-83
2022/03/02 04:02:40;;;;;;;8.32;5.38;;;3.30;96.70;;;;;;4977045;28;20050;-83
2022/03/02 04:05:09;;;;;;;6.72;5.00;;;3.20;96.70;;;;;;4989072;28;20050;-84
2022/03/02 04:07:44;;;;;;;9.38;5.25;;;3.20;96.70;;;;;;5005545;28;20053;-84
2022/03/02 04:10:13;;;;;;;6.88;5.15;;;3.40;96.70;;;;;;4996615;28;20077;-84
2022/03/02 04:12:43;;;;;;;7.28;5.20;;;3.20;96.70;;;;;;4999052;28;20096;-85
2022/03/02 04:15:12;;;;;;;6.18;4.75;;;3.00;96.70;;;;;;4997924;28;20049;-84
2022/03/02 04:17:40;;;;;;;5.90;4.60;;;2.90;96.70;;;;;;4997448;28;20776;-84
2022/03/02 04:20:09;;;;;;;5.30;4.28;;;2.70;96.70;;;;;;5005199;28;20050;-84
2022/03/02 04:22:37;;;;;;;7.97;4.50;;;2.70;96.70;;;;;;4972856;28;20054;-84
2022/03/02 04:25:06;;;;;;;5.93;4.25;;;2.70;96.70;;;;;;5008343;28;20052;-84
2022/03/02 04:27:34;;;;;;;7.93;4.95;;;2.80;96.70;;;;;;4992724;28;20046;-84
2022/03/02 04:30:05;;;;;;;6.43;4.88;;;2.90;96.70;;;;;;4993843;28;20112;-84
2022/03/02 04:32:33;;;;;;;7.85;4.82;;;3.00;96.70;;;;;;5015595;28;21418;-84
2022/03/02 04:35:01;;;;;;;8.55;4.85;;;2.90;96.70;;;;;;4995781;28;20522;-84
2022/03/02 04:37:30;;;;;;;7.55;5.22;;;2.90;96.70;;;;;;5004585;28;20495;-84
2022/03/02 04:39:58;;;;;;;8.48;5.00;;;2.90;96.70;;;;;;4989521;28;20042;-81
2022/03/02 04:42:27;;;;;;;7.75;4.20;;;2.90;96.70;;;;;;4999897;28;20101;-81
2022/03/02 04:44:56;;;;;;;7.13;4.25;;;2.90;96.70;;;;;;4997442;28;20049;-82
2022/03/02 04:47:25;;;;;;;7.18;4.72;;;2.90;96.70;;;;;;4993422;28;20072;-82
2022/03/02 04:49:54;;;;;;;10.13;5.13;;;2.70;96.70;;;;;;5008420;28;20045;-81
2022/03/02 04:52:22;;;;;;;7.60;4.97;;;2.80;96.70;;;;;;4990960;28;20042;-81
2022/03/02 04:55:09;;;;;;;7.97;4.82;;;2.90;96.70;;;;;;5007597;28;20120;-81
2022/03/02 04:57:40;;;;;;;7.32;5.10;;;2.90;96.70;;;;;;4989376;28;20164;-81
2022/03/02 05:00:10;;;;;;;7.80;5.18;;;2.90;96.70;;;;;;4991147;28;20089;-81
2022/03/02 05:02:41;;;;;;;11.00;5.70;;;2.90;96.70;;;;;;5012327;28;20070;-82
2022/03/02 05:05:11;;;;;;;8.13;5.47;;;2.70;96.70;;;;;;5007235;28;20050;-82
2022/03/02 05:07:40;;;;;;;9.95;5.53;;;2.60;96.70;;;;;;4984081;28;20090;-81
2022/03/02 05:10:09;;;;;;;9.13;5.82;;;2.60;96.70;;;;;;5001556;28;20408;-81
2022/03/02 05:12:38;;;;;;;8.68;5.68;;;2.60;96.70;;;;;;5003285;28;20038;-82
2022/03/02 05:15:07;;;;;;;9.63;6.22;;;2.60;96.70;;;;;;4986445;28;20201;-81
2022/03/02 05:17:36;;;;;;;8.40;6.20;;;2.50;96.70;;;;;;5005684;28;20175;-81
2022/03/02 05:20:08;;;;;;;8.77;5.72;;;2.90;96.70;;;;;;4994224;28;20045;-81
2022/03/02 05:22:36;;;;;;;8.77;5.57;;;2.70;96.70;;;;;;4996060;28;20471;-81
2022/03/02 05:25:06;;;;;;;8.43;5.68;;;2.50;96.70;;;;;;5001762;28;20038;-82
2022/03/02 05:27:34;;;;;;;8.32;5.63;;;2.40;96.70;;;;;;4989958;28;20092;-82
2022/03/02 05:30:04;;;;;;;8.18;5.32;;;2.30;96.70;;;;;;5005461;28;20070;-81
2022/03/02 05:32:32;;;;;;;9.88;5.57;;;2.30;96.70;;;;;;4991663;28;20085;-82
2022/03/02 05:35:00;;;;;;;8.43;5.40;;;2.40;96.70;;;;;;4994772;28;20184;-80
2022/03/02 05:37:30;;;;;;;8.43;6.05;;;2.50;96.70;;;;;;4990750;28;20045;-80
2022/03/02 05:39:58;;;;;;;8.07;5.85;;;2.50;96.70;;;;;;5003431;28;20042;-81
2022/03/02 05:42:27;;;;;;;9.60;6.03;;;2.40;96.70;;;;;;4989470;28;20054;-81
2022/03/02 05:44:56;;;;;;;7.70;5.65;;;2.50;96.70;;;;;;4988825;28;20109;-81
2022/03/02 05:47:24;;;;;;;9.75;6.20;;;2.60;96.70;;;;;;5001058;28;20086;-81
2022/03/02 05:49:52;;;;;;;9.60;5.95;;;2.50;96.70;;;;;;5007109;28;20464;-81
2022/03/02 05:52:20;;;;;;;11.80;6.10;;;2.40;96.70;;;;;;4985937;28;20052;-81
2022/03/02 05:54:49;;;;;;;9.00;6.38;;;2.30;96.70;;;;;;4993358;28;20610;-81
2022/03/02 05:57:18;;;;;;;9.90;6.22;;;2.30;96.70;;;;;;4988315;28;20097;-81
2022/03/02 05:59:46;;;;;;;9.68;5.85;;;2.20;96.70;;;;;;5003464;28;20038;-81
2022/03/02 06:02:15;;;;;;;8.70;5.63;;;2.20;96.70;;;;;;4991754;28;20053;-81
2022/03/02 06:04:43;;;;;;;7.90;5.80;;;2.20;96.70;;;;;;4998745;28;20057;-81
2022/03/02 06:07:11;;;;;;;9.77;6.28;;;2.30;96.70;;;;;;5001860;28;20042;-81
2022/03/02 06:09:42;;;;;;;9.13;5.45;;;2.30;96.70;;;;;;5005329;28;20053;-81
2022/03/02 06:12:14;;;;;;;9.95;5.38;;;2.20;96.70;;;;;;4987167;28;20039;-81
2022/03/02 06:14:43;;;;;;;9.93;6.28;;;2.30;96.70;;;;;;4996974;28;20046;-80
2022/03/02 06:17:12;;;;;;;9.98;5.97;;;2.40;96.70;;;;;;4988031;28;20044;-80
2022/03/02 06:19:41;;;;;;;11.27;6.82;;;2.50;96.70;;;;;;5002442;28;20050;-81
2022/03/02 06:22:10;;;;;;;9.95;7.20;;;2.60;96.70;;;;;;4989453;28;20054;-80
2022/03/02 06:24:39;;;;;;;11.38;7.05;;;2.60;96.70;;;;;;4989104;28;20039;-81
2022/03/02 06:27:07;;;;;;;11.73;7.30;;;2.60;96.70;;;;;;4982303;28;20454;-81
2022/03/02 06:29:38;;;;;;;8.68;6.28;;;2.40;96.70;;;;;;4994216;28;20137;-79
2022/03/02 06:32:07;;;;;;;13.95;7.78;;;2.40;96.70;;;;;;4987259;28;20492;-81
2022/03/02 06:34:35;;;;;;;13.57;7.60;;;2.40;96.70;;;;;;4989521;28;20065;-81
2022/03/02 06:37:04;;;;;;;10.48;7.07;;;2.40;96.70;;;;;;4970049;28;20042;-81
2022/03/02 06:39:32;;;;;;;14.25;8.00;;;2.50;96.70;;;;;;4986526;28;20133;-80
2022/03/02 06:42:05;;;;;;;9.80;6.47;;;2.60;96.70;;;;;;4985868;28;20053;-80
2022/03/02 06:44:43;;;;;;;10.75;6.68;;;2.60;96.70;;;;;;4991220;28;20065;-81
2022/03/02 06:47:13;;;;;;;10.95;6.82;;;2.70;96.70;;;;;;4992089;28;20505;-81
2022/03/02 06:49:55;;;;;;;8.30;6.07;;;2.80;96.70;;;;;;4994501;28;20056;-81
2022/03/02 06:52:33;;;;;;;8.50;5.60;;;2.90;96.70;;;;;;5001444;28;20042;-81
2022/03/02 06:55:04;;;;;;;11.88;6.15;;;3.00;96.70;;;;;;4984440;28;20125;-80
2022/03/02 06:57:37;;;;;;;10.63;6.05;;;2.80;96.70;;;;;;5004177;28;20038;-81
2022/03/02 07:00:16;;;;;;;11.27;6.30;;;2.80;96.70;;;;;;5006345;28;20043;-84
2022/03/02 07:02:46;;;;;;;11.77;6.18;;;2.90;96.70;;;;;;5008462;28;20073;-84
2022/03/02 07:05:16;;;;;;;10.50;6.25;;;2.80;96.70;;;;;;5010580;28;20050;-80
2022/03/02 07:07:49;;;;;;;11.70;6.00;;;2.80;96.70;;;;;;4996226;28;20105;-79
2022/03/02 07:10:17;;;;;;;9.55;6.35;;;2.80;96.70;;;;;;4986788;28;20050;-80
2022/03/02 07:12:45;;;;;;;10.85;6.65;;;2.90;96.70;;;;;;5008316;28;20054;-80
2022/03/02 07:15:15;;;;;;;10.68;6.70;;;3.00;96.70;;;;;;4988835;28;20042;-78
2022/03/02 07:17:43;;;;;;;10.25;7.18;;;3.00;96.70;;;;;;4994917;28;20042;-80
2022/03/02 07:20:12;;;;;;;11.90;6.90;;;3.00;96.70;;;;;;4989124;28;20475;-79
2022/03/02 07:22:43;;;;;;;10.95;7.13;;;3.00;96.70;;;;;;4989112;28;21007;-81
2022/03/02 07:25:18;;;;;;;11.52;6.70;;;3.20;96.70;;;;;;5002574;28;20046;-79
2022/03/02 07:27:46;;;;;;;14.95;7.45;;;3.50;96.70;;;;;;4987470;28;20112;-78
2022/03/02 07:30:17;;;;;;;12.88;7.05;;;3.50;96.70;;;;;;4997491;28;20053;-80
2022/03/02 07:32:45;;;;;;;12.27;7.40;;;3.60;96.70;;;;;;4987514;28;20581;-81
2022/03/02 07:35:15;;;;;;;13.32;7.88;;;3.50;96.70;;;;;;4991779;28;20039;-80
2022/03/02 07:37:44;;;;;;;14.15;8.98;;;3.60;96.70;;;;;;4986907;28;20719;-79
2022/03/02 07:40:14;;;;;;;14.60;8.95;;;3.80;96.70;;;;;;4993385;28;20538;-79
2022/03/02 07:42:44;;;;;;;14.70;9.48;;;3.80;96.70;;;;;;4986214;28;20042;-80
2022/03/02 07:45:12;;;;;;;20.35;9.63;;;3.90;96.70;;;;;;4984947;28;20052;-79
2022/03/02 07:47:42;;;;;;;22.98;11.65;;;3.90;96.70;;;;;;4989152;28;20054;-79
2022/03/02 07:50:10;;;;;;;18.58;9.93;;;3.90;96.70;;;;;;5010930;28;20046;-83
2022/03/02 07:52:45;;;;;;;19.02;10.48;;;4.00;96.70;;;;;;4974916;28;20072;-84
2022/03/02 07:55:15;;;;;;;19.73;10.90;;;3.90;96.70;;;;;;4977948;28;20050;-80
2022/03/02 07:57:44;;;;;;;21.63;11.77;;;3.90;96.70;;;;;;5005630;28;20042;-81
2022/03/02 08:00:13;;;;;;;14.27;9.15;;;4.00;96.70;;;;;;4980947;28;20041;-80
2022/03/02 08:02:46;;;;;;;18.13;9.73;;;4.10;96.70;;;;;;5004159;28;20573;-81
2022/03/02 08:05:15;;;;;;;14.80;8.73;;;4.30;96.70;;;;;;4990184;28;20578;-82
2022/03/02 08:07:43;;;;;;;15.25;8.85;;;4.30;96.70;;;;;;4991342;28;20041;-83
2022/03/02 08:10:15;;;;;;;15.02;8.70;;;4.40;96.70;;;;;;4992515;28;20854;-83
2022/03/02 08:12:43;;;;;;;13.23;8.32;;;4.40;96.70;;;;;;4989671;28;20489;-82
2022/03/02 08:15:11;;;;;;;14.35;10.48;;;4.60;96.70;;;;;;4997333;28;20407;-80
2022/03/02 08:17:39;;;;;;;14.25;8.90;;;4.80;96.70;;;;;;4998100;28;20057;-82
2022/03/02 08:20:10;;;;;;;11.27;8.25;;;4.90;96.70;;;;;;4978705;28;20049;-82
2022/03/02 08:22:48;;;;;;;12.00;7.75;;;4.90;96.70;;;;;;4991544;28;20048;-81
2022/03/02 08:25:20;;;;;;;12.70;7.93;;;5.00;96.70;;;;;;4979307;28;20046;-81
2022/03/02 08:27:52;;;;;;;10.25;7.63;;;5.10;96.70;;;;;;4989401;28;20692;-80
2022/03/02 08:30:20;;;;;;;11.30;8.02;;;5.00;96.70;;;;;;4987388;28;20050;-79
2022/03/02 08:32:50;;;;;;;9.65;7.72;;;5.00;96.70;;;;;;4986275;28;20070;-79
2022/03/02 08:35:20;;;;;;;10.57;7.75;;;5.30;96.70;;;;;;4988834;28;20053;-81
2022/03/02 08:37:48;;;;;;;13.05;8.60;;;5.40;96.70;;;;;;4988650;28;20492;-80
2022/03/02 08:40:16;;;;;;;13.32;8.38;;;5.60;96.70;;;;;;4992144;28;20057;-81
2022/03/02 08:42:47;;;;;;;11.77;8.07;;;5.70;96.70;;;;;;4971900;28;20081;-80
2022/03/02 08:45:18;;;;;;;11.25;8.15;;;5.70;96.70;;;;;;4972985;28;20053;-80
2022/03/02 08:47:47;;;;;;;14.95;8.05;;;5.60;96.70;;;;;;4988819;28;20132;-78
2022/03/02 08:50:15;;;;;;;10.95;7.47;;;5.70;96.70;;;;;;4991800;28;20100;-80
2022/03/02 08:52:46;;;;;;;11.48;8.27;;;5.70;96.70;;;;;;4974033;28;20065;-79
2022/03/02 08:55:14;;;;;;;11.93;7.95;;;5.70;96.70;;;;;;4988261;28;20102;-79
2022/03/02 08:57:43;;;;;;;9.57;6.75;;;5.70;96.70;;;;;;4989290;28;20047;-79
2022/03/02 09:00:14;;;;;;;11.02;7.82;;;5.70;96.70;;;;;;4972416;28;20064;-80
2022/03/02 09:02:42;;;;;;;13.05;8.40;;;5.70;96.70;;;;;;4991079;28;20045;-82
2022/03/02 09:05:11;;;;;;;10.57;7.90;;;5.80;96.70;;;;;;4982615;28;20120;-82
2022/03/02 09:07:40;;;;;;;12.80;8.70;;;6.00;96.70;;;;;;4991007;28;20039;-82
2022/03/02 09:10:10;;;;;;;14.32;9.13;;;6.00;96.70;;;;;;4996402;28;20069;-82
2022/03/02 09:12:41;;;;;;;13.68;8.93;;;6.20;96.70;;;;;;4985161;28;20038;-79
2022/03/02 09:15:10;;;;;;;12.07;8.63;;;6.30;96.70;;;;;;4987958;28;20084;-78
2022/03/02 09:17:38;;;;;;;11.43;8.52;;;6.40;96.70;;;;;;4988450;28;20034;-80
2022/03/02 09:20:09;;;;;;;15.45;10.48;;;6.50;96.70;;;;;;4988745;28;20046;-80
2022/03/02 09:22:39;;;;;;;14.30;9.27;;;6.60;96.70;;;;;;5004448;28;20322;-80
2022/03/02 09:25:09;;;;;;;12.48;9.25;;;6.70;96.70;;;;;;5002455;28;20424;-80
2022/03/02 09:27:38;;;;;;;16.95;10.05;;;6.90;96.70;;;;;;4993428;28;20149;-79
2022/03/02 09:30:08;;;;;;;15.35;9.93;;;6.90;96.70;;;;;;4986245;28;20042;-80
2022/03/02 09:32:41;;;;;;;14.65;9.40;;;7.00;96.70;;;;;;4986517;28;20118;-82
2022/03/02 09:35:13;;;;;;;13.30;8.90;;;7.00;96.70;;;;;;5005018;28;20536;-82
2022/03/02 09:37:42;;;;;;;12.32;9.00;;;7.10;96.70;;;;;;4981243;28;20042;-80
2022/03/02 09:40:21;;;;;;;12.73;9.15;;;7.20;96.70;;;;;;4983319;28;20049;-78
2022/03/02 09:42:56;;;;;;;13.18;9.18;;;7.40;96.70;;;;;;4988206;28;20053;-86
2022/03/02 09:45:26;;;;;;;12.57;9.95;;;7.60;96.70;;;;;;5005444;28;20142;-88
2022/03/02 09:47:56;;;;;;;15.02;9.15;;;7.70;96.70;;;;;;4989796;28;20073;-87
2022/03/02 09:50:27;;;;;;;13.30;9.35;;;7.90;96.70;;;;;;5004990;28;20575;-87
2022/03/02 09:52:55;;;;;;;11.98;8.63;;;8.00;96.70;;;;;;4991450;28;20061;-87
2022/03/02 09:55:25;;;;;;;12.05;9.30;;;8.20;96.70;;;;;;4988997;28;20054;-85
2022/03/02 09:57:55;;;;;;;13.20;9.85;;;8.20;96.70;;;;;;4988315;28;20113;-87
2022/03/02 10:00:25;;;;;;;13.90;9.75;;;8.30;96.70;;;;;;5003831;28;20050;-87
2022/03/02 10:02:55;;;;;;;14.52;9.25;;;8.40;96.70;;;;;;4993341;28;20050;-89
2022/03/02 10:05:24;;;;;;;14.27;8.98;;;8.60;96.70;;;;;;4989535;28;20062;-90
2022/03/02 10:07:58;;;;;;;14.57;9.40;;;8.80;96.70;;;;;;4991183;28;20042;-88
2022/03/02 10:10:32;;;;;;;13.30;8.88;;;8.80;96.70;;;;;;5019154;28;20042;-88
2022/03/02 10:13:04;;;;;;;12.27;9.32;;;8.80;96.70;;;;;;4997959;28;20078;-86
2022/03/02 10:15:33;;;;;;;12.38;8.52;;;9.00;96.70;;;;;;5010121;28;20100;-87
2022/03/02 10:18:07;;;;;;;11.02;8.63;;;9.00;96.70;;;;;;4988755;28;20053;-85
2022/03/02 10:20:38;;;;;;;12.15;8.70;;;9.20;96.70;;;;;;4986227;28;20161;-86
2022/03/02 10:23:34;;;;;;;12.52;8.52;;;9.50;96.70;;;;;;4988154;28;20097;-88
2022/03/02 10:26:51;;;;;;;17.08;8.88;;;9.70;96.70;;;;;;5007832;28;20106;-85
2022/03/02 10:29:30;;;;;;;12.98;8.52;;;9.60;96.70;;;;;;4988334;28;20077;-87
2022/03/02 10:32:06;;;;;;;13.32;8.27;;;9.60;96.70;;;;;;4986952;28;20567;-88
2022/03/02 10:34:36;;;;;;;13.93;8.20;;;9.70;96.70;;;;;;4995988;28;20188;-88
2022/03/02 10:37:19;;;;;;;9.60;7.28;;;9.70;96.70;;;;;;4987371;28;20686;-88
2022/03/02 10:39:54;;;;;;;9.57;6.63;;;9.80;96.70;;;;;;4975682;28;20500;-89
2022/03/02 10:42:26;;;;;;;11.07;7.25;;;10.00;96.70;;;;;;4994642;28;20054;-86
2022/03/02 10:45:04;;;;;;;11.85;7.47;;;10.10;96.70;;;;;;4988002;28;20100;-86
2022/03/02 10:47:35;;;;;;;11.10;6.75;;;10.20;96.70;;;;;;4999139;28;20054;-86
2022/03/02 10:50:05;;;;;;;8.05;6.47;;;10.30;96.70;;;;;;4987593;28;20543;-86
2022/03/02 10:52:37;;;;;;;9.60;6.57;;;10.40;96.70;;;;;;4990072;28;20069;-85
2022/03/02 10:55:07;;;;;;;7.35;6.40;;;10.40;96.70;;;;;;4977832;28;20107;-87
2022/03/02 10:57:36;;;;;;;13.85;9.55;;;10.50;96.70;;;;;;4986603;28;20050;-87
2022/03/02 11:00:11;;;;;;;10.38;7.18;;;10.60;96.70;;;;;;4970178;28;20045;-86
2022/03/02 11:02:41;;;;;;;11.35;7.93;;;10.90;96.70;;;;;;4996658;28;20042;-87
2022/03/02 11:05:12;;;;;;;11.95;7.00;;;10.90;96.70;;;;;;4974449;28;20043;-85
2022/03/02 11:07:46;;;;;;;12.98;6.32;;;10.90;96.70;;;;;;4987601;28;20078;-86
2022/03/02 11:10:16;;;;;;;8.73;6.28;;;11.00;96.70;;;;;;5002708;28;20046;-86
2022/03/02 11:12:46;;;;;;;10.00;6.22;;;11.10;95.90;;;;;;5006110;28;20035;-86
2022/03/02 11:15:17;;;;;;;9.60;7.10;;;11.10;96.10;;;;;;5003785;28;20042;-87
2022/03/02 11:17:52;;;;;;;11.20;6.93;;;11.20;96.40;;;;;;4997468;28;20050;-87
2022/03/02 11:20:21;;;;;;;7.68;5.90;;;11.10;96.10;;;;;;4988910;28;20316;-86
2022/03/02 11:22:55;;;;;;;8.32;6.82;;;11.30;95.90;;;;;;4992152;28;20598;-87
2022/03/02 11:25:46;;;;;;;12.10;7.65;;;11.30;95.40;;;;;;5002455;28;20492;-87
2022/03/02 11:28:16;;;;;;;9.68;7.53;;;11.30;95.80;;;;;;5003314;28;20073;-86
2022/03/02 11:30:51;;;;;;;10.82;7.63;;;11.40;95.80;;;;;;4987771;28;20137;-86
2022/03/02 11:33:27;;;;;;;10.25;7.72;;;11.60;96.20;;;;;;4975881;28;20050;-87
2022/03/02 11:35:59;;;;;;;10.63;7.72;;;11.60;95.70;;;;;;4998555;28;20082;-87
2022/03/02 11:38:31;;;;;;;13.10;8.52;;;11.70;95.50;;;;;;4986797;28;20046;-87
2022/03/02 11:41:01;;;;;;;9.85;7.45;;;11.90;95.60;;;;;;4982290;28;20050;-87
2022/03/02 11:43:31;;;;;;;9.25;6.45;;;12.00;95.50;;;;;;5003600;28;20038;-86
2022/03/02 11:46:03;;;;;;;9.05;7.35;;;12.20;95.60;;;;;;5001581;28;20072;-87
2022/03/02 11:48:36;;;;;;;8.65;6.28;;;12.10;94.90;;;;;;5006520;28;20065;-86
2022/03/02 11:51:13;;;;;;;7.88;6.30;;;12.20;95.20;;;;;;4996748;28;20500;-87
2022/03/02 11:53:43;;;;;;;8.32;6.22;;;12.20;94.10;;;;;;4991748;28;20038;-87
2022/03/02 11:56:14;;;;;;;8.93;6.95;;;12.20;93.80;;;;;;4992208;28;20081;-88
2022/03/02 11:59:04;;;;;;;8.88;6.80;;;12.30;93.80;;;;;;4994060;28;20050;-88
2022/03/02 12:01:50;;;;;;;10.35;7.10;;;12.50;93.90;;;;;;4968285;28;20057;-87
2022/03/02 12:04:29;;;;;;;10.80;7.47;;;12.50;92.80;;;;;;4993063;28;20120;-88
2022/03/02 12:06:59;;;;;;;10.88;7.32;;;12.60;93.10;;;;;;4991237;28;20141;-88
2022/03/02 12:09:29;;;;;;;10.27;7.63;;;12.70;93.10;;;;;;5007193;28;20132;-87
2022/03/02 12:12:09;;;;;;;8.82;7.22;;;12.90;92.20;;;;;;4995022;28;20528;-87
2022/03/02 12:14:45;;;;;;;13.88;8.13;;;13.10;91.40;;;;;;4990419;28;20476;-88
2022/03/02 12:17:19;;;;;;;10.25;7.20;;;13.10;91.50;;;;;;4998593;28;20134;-87
2022/03/02 12:19:49;;;;;;;10.02;6.93;;;13.30;91.40;;;;;;5000981;28;20105;-87
2022/03/02 12:22:18;;;;;;;10.65;7.53;;;13.30;89.80;;;;;;5012285;28;20042;-88
2022/03/02 12:24:48;;;;;;;11.77;7.90;;;13.40;90.10;;;;;;4992289;28;20149;-87
2022/03/02 12:27:17;;;;;;;10.30;7.82;;;13.30;90.40;;;;;;4988881;28;20074;-87
2022/03/02 12:29:53;;;;;;;12.23;9.15;;;13.50;90.80;;;;;;5006998;28;20061;-87
2022/03/02 12:32:28;;;;;;;9.27;6.82;;;13.60;91.20;;;;;;5006715;28;20145;-87
2022/03/02 12:34:57;;;;;;;9.10;7.18;;;13.60;91.80;;;;;;4990805;28;20058;-84
2022/03/02 12:37:27;;;;;;;7.82;6.07;;;13.70;91.50;;;;;;4997679;28;20049;-85
2022/03/02 12:39:55;;;;;;;7.60;5.60;;;13.70;92.80;;;;;;5006987;28;20289;-86
2022/03/02 12:42:24;;;;;;;9.32;6.50;;;13.70;93.80;;;;;;5014891;28;20030;-86
2022/03/02 12:44:54;;;;;;;7.15;6.38;;;13.90;94.70;;;;;;5003131;28;20038;-85
2022/03/02 12:47:26;;;;;;;10.60;7.13;;;13.90;93.70;;;;;;5011858;28;20045;-86
2022/03/02 12:49:56;;;;;;;8.93;6.82;;;13.90;93.80;;;;;;4987168;28;20046;-84
2022/03/02 12:52:26;;;;;;;7.68;6.38;;;13.80;93.20;;;;;;4990191;28;20043;-85
2022/03/02 12:54:56;;;;;;;7.88;6.28;;;13.70;94.30;;;;;;4987925;28;20043;-87
2022/03/02 12:57:25;;;;;;;9.63;6.53;;;13.80;94.00;;;;;;4986137;28;20046;-86
2022/03/02 12:59:54;;;;;;;9.10;7.22;;;13.60;93.00;;;;;;4993054;28;20068;-87
2022/03/02 13:02:27;;;;;;;7.30;5.97;;;13.60;93.50;;;;;;4992074;28;20042;-83
2022/03/02 13:05:04;;;;;;;7.63;6.32;;;13.80;93.50;;;;;;5002826;28;20057;-86
2022/03/02 13:07:42;;;;;;;8.98;6.25;;;13.80;93.10;;;;;;5004551;28;20455;-85